sensor_id;sensor_type;location;lat;lon;timestamp;pressure;altitude;pressure_sealevel;temperature;humidity
71601;BME280;59446;52.192;4.628;2023-02-26T00:00:12;102020.69;;;16.61;49.38
71601;BME280;59446;52.192;4.628;2023-02-26T00:02:40;102028.66;;;16.58;48.94
71601;BME280;59446;52.192;4.628;2023-02-26T00:05:06;102039.25;;;16.57;49.58
71601;BME280;59446;52.192;4.628;2023-02-26T00:07:32;102037.47;;;16.57;49.51
71601;BME280;59446;52.192;4.628;2023-02-26T00:09:57;102038.34;;;16.58;49.57
71601;BME280;59446;52.192;4.628;2023-02-26T00:12:23;102041.00;;;16.56;49.44
71601;BME280;59446;52.192;4.628;2023-02-26T00:14:49;102045.38;;;16.57;49.11
71601;BME280;59446;52.192;4.628;2023-02-26T00:17:41;102054.16;;;16.56;49.61
71601;BME280;59446;52.192;4.628;2023-02-26T00:20:09;102061.22;;;16.54;49.24
71601;BME280;59446;52.192;4.628;2023-02-26T00:22:36;102060.47;;;16.51;49.59
71601;BME280;59446;52.192;4.628;2023-02-26T00:25:02;102074.53;;;16.50;49.76
71601;BME280;59446;52.192;4.628;2023-02-26T00:27:27;102066.59;;;16.51;49.38
71601;BME280;59446;52.192;4.628;2023-02-26T00:29:53;102071.84;;;16.51;49.64
71601;BME280;59446;52.192;4.628;2023-02-26T00:32:19;102081.56;;;16.49;49.61
71601;BME280;59446;52.192;4.628;2023-02-26T00:34:45;102080.69;;;16.49;49.44
71601;BME280;59446;52.192;4.628;2023-02-26T00:42:37;102102.69;;;16.46;49.72
71601;BME280;59446;52.192;4.628;2023-02-26T00:45:03;102106.28;;;16.44;49.57
71601;BME280;59446;52.192;4.628;2023-02-26T00:47:49;102098.41;;;16.44;50.21
71601;BME280;59446;52.192;4.628;2023-02-26T00:50:25;102093.13;;;16.44;49.62
71601;BME280;59446;52.192;4.628;2023-02-26T00:55:25;102106.34;;;16.42;49.63
71601;BME280;59446;52.192;4.628;2023-02-26T00:57:50;102094.09;;;16.41;49.78
71601;BME280;59446;52.192;4.628;2023-02-26T01:00:18;102101.88;;;16.44;50.01
71601;BME280;59446;52.192;4.628;2023-02-26T01:02:44;102107.19;;;16.43;49.83
71601;BME280;59446;52.192;4.628;2023-02-26T01:05:10;102112.47;;;16.43;49.57
71601;BME280;59446;52.192;4.628;2023-02-26T01:10:28;102114.38;;;16.38;49.97
71601;BME280;59446;52.192;4.628;2023-02-26T01:12:53;102114.31;;;16.39;49.44
71601;BME280;59446;52.192;4.628;2023-02-26T01:15:21;102118.72;;;16.39;50.02
71601;BME280;59446;52.192;4.628;2023-02-26T01:18:03;102123.22;;;16.35;50.11
71601;BME280;59446;52.192;4.628;2023-02-26T01:20:36;102132.03;;;16.34;50.19
71601;BME280;59446;52.192;4.628;2023-02-26T01:23:06;102126.84;;;16.31;50.02
71601;BME280;59446;52.192;4.628;2023-02-26T01:25:40;102139.06;;;16.32;50.12
71601;BME280;59446;52.192;4.628;2023-02-26T01:28:08;102141.81;;;16.29;50.15
71601;BME280;59446;52.192;4.628;2023-02-26T01:30:34;102143.53;;;16.30;49.96
71601;BME280;59446;52.192;4.628;2023-02-26T01:35:52;102157.56;;;16.29;50.27
71601;BME280;59446;52.192;4.628;2023-02-26T01:41:28;102159.38;;;16.27;50.05
71601;BME280;59446;52.192;4.628;2023-02-26T01:44:14;102155.91;;;16.26;50.22
71601;BME280;59446;52.192;4.628;2023-02-26T01:49:33;102159.50;;;16.24;50.40
71601;BME280;59446;52.192;4.628;2023-02-26T01:52:04;102160.41;;;16.23;50.01
71601;BME280;59446;52.192;4.628;2023-02-26T01:54:35;102168.22;;;16.24;50.25
71601;BME280;59446;52.192;4.628;2023-02-26T01:57:06;102165.66;;;16.23;50.10
71601;BME280;59446;52.192;4.628;2023-02-26T01:59:34;102161.34;;;16.20;50.25
71601;BME280;59446;52.192;4.628;2023-02-26T02:02:03;102166.66;;;16.19;50.25
71601;BME280;59446;52.192;4.628;2023-02-26T02:04:29;102168.34;;;16.21;50.06
71601;BME280;59446;52.192;4.628;2023-02-26T02:06:55;102174.53;;;16.19;50.25
71601;BME280;59446;52.192;4.628;2023-02-26T02:09:20;102178.09;;;16.18;50.47
71601;BME280;59446;52.192;4.628;2023-02-26T02:15:12;102186.78;;;16.20;50.55
71601;BME280;59446;52.192;4.628;2023-02-26T02:31:49;102199.28;;;16.12;50.71
71601;BME280;59446;52.192;4.628;2023-02-26T02:34:52;102201.94;;;16.10;50.63
71601;BME280;59446;52.192;4.628;2023-02-26T02:37:26;102205.53;;;16.08;50.21
71601;BME280;59446;52.192;4.628;2023-02-26T02:42:31;102210.88;;;16.04;50.43
71601;BME280;59446;52.192;4.628;2023-02-26T02:48:25;102220.47;;;16.05;50.11
71601;BME280;59446;52.192;4.628;2023-02-26T02:54:10;102224.91;;;16.03;50.85
71601;BME280;59446;52.192;4.628;2023-02-26T02:56:53;102225.81;;;16.02;50.73
71601;BME280;59446;52.192;4.628;2023-02-26T02:59:31;102232.88;;;16.00;50.76
71601;BME280;59446;52.192;4.628;2023-02-26T03:05:01;102228.50;;;16.01;50.98
71601;BME280;59446;52.192;4.628;2023-02-26T03:07:30;102234.66;;;16.00;50.91
71601;BME280;59446;52.192;4.628;2023-02-26T03:09:56;102224.16;;;16.00;50.81
71601;BME280;59446;52.192;4.628;2023-02-26T03:12:23;102231.97;;;16.01;50.37
71601;BME280;59446;52.192;4.628;2023-02-26T03:14:49;102232.94;;;15.99;50.70
71601;BME280;59446;52.192;4.628;2023-02-26T03:20:18;102243.59;;;15.94;50.73
71601;BME280;59446;52.192;4.628;2023-02-26T03:23:04;102242.69;;;15.95;50.51
71601;BME280;59446;52.192;4.628;2023-02-26T03:25:39;102241.88;;;15.93;50.40
71601;BME280;59446;52.192;4.628;2023-02-26T03:28:17;102246.25;;;15.93;50.57
71601;BME280;59446;52.192;4.628;2023-02-26T03:30:54;102244.50;;;15.93;50.46
71601;BME280;59446;52.192;4.628;2023-02-26T03:33:27;102248.94;;;15.91;50.59
71601;BME280;59446;52.192;4.628;2023-02-26T03:36:07;102249.84;;;15.90;51.07
71601;BME280;59446;52.192;4.628;2023-02-26T03:39:10;102263.00;;;15.89;51.03
71601;BME280;59446;52.192;4.628;2023-02-26T03:41:41;102255.09;;;15.90;50.36
71601;BME280;59446;52.192;4.628;2023-02-26T03:44:16;102257.78;;;15.87;50.72
71601;BME280;59446;52.192;4.628;2023-02-26T03:46:47;102265.66;;;15.89;50.55
71601;BME280;59446;52.192;4.628;2023-02-26T03:49:19;102263.84;;;15.91;50.51
71601;BME280;59446;52.192;4.628;2023-02-26T03:51:48;102268.38;;;15.84;50.46
71601;BME280;59446;52.192;4.628;2023-02-26T03:54:26;102271.91;;;15.83;50.33
71601;BME280;59446;52.192;4.628;2023-02-26T03:56:53;102266.59;;;15.85;50.79
71601;BME280;59446;52.192;4.628;2023-02-26T03:59:19;102271.91;;;15.83;50.52
71601;BME280;59446;52.192;4.628;2023-02-26T04:02:33;102271.84;;;15.85;50.85
71601;BME280;59446;52.192;4.628;2023-02-26T04:04:38;102275.44;;;15.82;50.45
71601;BME280;59446;52.192;4.628;2023-02-26T04:07:08;102285.06;;;15.82;50.55
71601;BME280;59446;52.192;4.628;2023-02-26T04:09:34;102290.28;;;15.83;50.81
71601;BME280;59446;52.192;4.628;2023-02-26T04:11:59;102295.59;;;15.82;50.75
71601;BME280;59446;52.192;4.628;2023-02-26T04:14:25;102295.63;;;15.80;51.11
71601;BME280;59446;52.192;4.628;2023-02-26T04:16:50;102286.06;;;15.78;50.75
71601;BME280;59446;52.192;4.628;2023-02-26T04:19:16;102293.94;;;15.78;51.07
71601;BME280;59446;52.192;4.628;2023-02-26T04:21:41;102296.63;;;15.76;51.06
71601;BME280;59446;52.192;4.628;2023-02-26T04:24:07;102296.63;;;15.76;51.07
71601;BME280;59446;52.192;4.628;2023-02-26T04:26:32;102294.94;;;15.73;50.59
71601;BME280;59446;52.192;4.628;2023-02-26T04:28:57;102288.81;;;15.73;51.01
71601;BME280;59446;52.192;4.628;2023-02-26T04:31:23;102296.75;;;15.71;50.98
71601;BME280;59446;52.192;4.628;2023-02-26T04:33:48;102306.31;;;15.74;50.53
71601;BME280;59446;52.192;4.628;2023-02-26T04:36:14;102305.53;;;15.70;50.86
71601;BME280;59446;52.192;4.628;2023-02-26T04:38:39;102313.44;;;15.69;50.97
71601;BME280;59446;52.192;4.628;2023-02-26T04:41:05;102312.47;;;15.73;50.51
71601;BME280;59446;52.192;4.628;2023-02-26T04:43:31;102312.47;;;15.73;50.59
71601;BME280;59446;52.192;4.628;2023-02-26T04:45:57;102324.00;;;15.67;50.70
71601;BME280;59446;52.192;4.628;2023-02-26T04:48:22;102328.34;;;15.67;51.10
71601;BME280;59446;52.192;4.628;2023-02-26T04:50:48;102331.88;;;15.66;51.01
71601;BME280;59446;52.192;4.628;2023-02-26T04:53:13;102335.38;;;15.66;51.24
71601;BME280;59446;52.192;4.628;2023-02-26T04:55:39;102328.41;;;15.64;50.53
71601;BME280;59446;52.192;4.628;2023-02-26T04:58:05;102331.91;;;15.64;50.92
71601;BME280;59446;52.192;4.628;2023-02-26T05:00:31;102331.06;;;15.62;51.11
71601;BME280;59446;52.192;4.628;2023-02-26T05:02:56;102336.38;;;15.61;51.17
71601;BME280;59446;52.192;4.628;2023-02-26T05:05:22;102338.91;;;15.64;50.86
71601;BME280;59446;52.192;4.628;2023-02-26T05:07:48;102334.59;;;15.61;50.56
71601;BME280;59446;52.192;4.628;2023-02-26T05:10:13;102339.88;;;15.60;50.57
71601;BME280;59446;52.192;4.628;2023-02-26T05:12:38;102346.88;;;15.61;50.74
71601;BME280;59446;52.192;4.628;2023-02-26T05:15:05;102353.88;;;15.60;50.44
71601;BME280;59446;52.192;4.628;2023-02-26T05:17:30;102359.22;;;15.57;50.89
71601;BME280;59446;52.192;4.628;2023-02-26T05:19:56;102366.16;;;15.60;50.75
71601;BME280;59446;52.192;4.628;2023-02-26T05:22:21;102353.97;;;15.57;50.45
71601;BME280;59446;52.192;4.628;2023-02-26T05:24:47;102364.47;;;15.57;50.92
71601;BME280;59446;52.192;4.628;2023-02-26T05:27:13;102367.16;;;15.54;50.64
71601;BME280;59446;52.192;4.628;2023-02-26T05:29:39;102358.44;;;15.54;50.60
71601;BME280;59446;52.192;4.628;2023-02-26T05:32:06;102370.66;;;15.55;50.59
71601;BME280;59446;52.192;4.628;2023-02-26T05:34:32;102372.50;;;15.51;50.95
71601;BME280;59446;52.192;4.628;2023-02-26T05:36:57;102372.38;;;15.56;50.55
71601;BME280;59446;52.192;4.628;2023-02-26T05:39:23;102372.47;;;15.53;50.55
71601;BME280;59446;52.192;4.628;2023-02-26T05:41:48;102374.19;;;15.54;50.85
71601;BME280;59446;52.192;4.628;2023-02-26T05:44:16;102383.88;;;15.52;50.62
71601;BME280;59446;52.192;4.628;2023-02-26T05:46:41;102377.69;;;15.54;50.76
71601;BME280;59446;52.192;4.628;2023-02-26T05:49:06;102381.31;;;15.49;50.58
71601;BME280;59446;52.192;4.628;2023-02-26T05:51:32;102383.13;;;15.47;51.13
71601;BME280;59446;52.192;4.628;2023-02-26T05:53:57;102391.00;;;15.47;50.98
71601;BME280;59446;52.192;4.628;2023-02-26T05:56:22;102397.16;;;15.45;50.73
71601;BME280;59446;52.192;4.628;2023-02-26T05:58:48;102393.69;;;15.43;50.91
71601;BME280;59446;52.192;4.628;2023-02-26T06:01:13;102398.91;;;15.45;50.98
71601;BME280;59446;52.192;4.628;2023-02-26T06:03:39;102395.44;;;15.44;50.28
71601;BME280;59446;52.192;4.628;2023-02-26T06:06:09;102401.56;;;15.43;50.81
71601;BME280;59446;52.192;4.628;2023-02-26T06:08:34;102402.44;;;15.42;50.54
71601;BME280;59446;52.192;4.628;2023-02-26T06:11:00;102418.22;;;15.41;50.56
71601;BME280;59446;52.192;4.628;2023-02-26T06:13:25;102431.31;;;15.42;51.17
71601;BME280;59446;52.192;4.628;2023-02-26T06:15:50;102430.50;;;15.40;51.22
71601;BME280;59446;52.192;4.628;2023-02-26T06:18:19;102427.81;;;15.42;50.75
71601;BME280;59446;52.192;4.628;2023-02-26T06:20:44;102431.34;;;15.41;50.72
71601;BME280;59446;52.192;4.628;2023-02-26T06:23:09;102432.28;;;15.38;50.80
71601;BME280;59446;52.192;4.628;2023-02-26T06:25:35;102441.00;;;15.40;50.36
71601;BME280;59446;52.192;4.628;2023-02-26T06:28:00;102446.31;;;15.37;51.21
71601;BME280;59446;52.192;4.628;2023-02-26T06:30:26;102445.47;;;15.37;51.07
71601;BME280;59446;52.192;4.628;2023-02-26T06:32:51;102445.47;;;15.37;50.95
71601;BME280;59446;52.192;4.628;2023-02-26T06:35:17;102447.25;;;15.35;50.73
71601;BME280;59446;52.192;4.628;2023-02-26T06:37:42;102454.31;;;15.33;50.59
71601;BME280;59446;52.192;4.628;2023-02-26T06:40:08;102458.69;;;15.32;50.52
71601;BME280;59446;52.192;4.628;2023-02-26T06:42:35;102461.28;;;15.34;50.74
71601;BME280;59446;52.192;4.628;2023-02-26T06:45:01;102471.75;;;15.35;50.67
71601;BME280;59446;52.192;4.628;2023-02-26T06:47:26;102466.56;;;15.32;51.03
71601;BME280;59446;52.192;4.628;2023-02-26T06:49:52;102475.31;;;15.33;50.68
71601;BME280;59446;52.192;4.628;2023-02-26T06:52:17;102475.38;;;15.30;50.95
71601;BME280;59446;52.192;4.628;2023-02-26T06:54:43;102487.59;;;15.31;50.55
71601;BME280;59446;52.192;4.628;2023-02-26T06:57:08;102495.47;;;15.31;51.05
71601;BME280;59446;52.192;4.628;2023-02-26T06:59:34;102502.50;;;15.29;50.85
71601;BME280;59446;52.192;4.628;2023-02-26T07:01:59;102509.56;;;15.27;51.11
71601;BME280;59446;52.192;4.628;2023-02-26T07:04:24;102509.53;;;15.28;50.34
71601;BME280;59446;52.192;4.628;2023-02-26T07:06:50;102511.28;;;15.28;50.91
71601;BME280;59446;52.192;4.628;2023-02-26T07:09:15;102509.59;;;15.25;50.80
71601;BME280;59446;52.192;4.628;2023-02-26T07:11:40;102520.13;;;15.24;50.67
71601;BME280;59446;52.192;4.628;2023-02-26T07:14:06;102518.41;;;15.23;50.85
71601;BME280;59446;52.192;4.628;2023-02-26T07:16:31;102528.03;;;15.22;50.62
71601;BME280;59446;52.192;4.628;2023-02-26T07:18:56;102530.63;;;15.24;50.78
71601;BME280;59446;52.192;4.628;2023-02-26T07:21:22;102524.56;;;15.20;50.59
71601;BME280;59446;52.192;4.628;2023-02-26T07:23:47;102533.31;;;15.21;50.73
71601;BME280;59446;52.192;4.628;2023-02-26T07:26:14;102536.81;;;15.21;51.12
71601;BME280;59446;52.192;4.628;2023-02-26T07:28:39;102543.81;;;15.19;51.09
71601;BME280;59446;52.192;4.628;2023-02-26T07:31:04;102545.56;;;15.19;51.23
71601;BME280;59446;52.192;4.628;2023-02-26T07:33:30;102542.88;;;15.23;51.25
71601;BME280;59446;52.192;4.628;2023-02-26T07:35:56;102547.28;;;15.21;50.79
71601;BME280;59446;52.192;4.628;2023-02-26T07:38:21;102547.19;;;15.26;50.64
71601;BME280;59446;52.192;4.628;2023-02-26T07:40:47;102551.25;;;15.40;50.22
71601;BME280;59446;52.192;4.628;2023-02-26T07:43:12;102559.19;;;15.37;51.02
71601;BME280;59446;52.192;4.628;2023-02-26T07:45:38;102556.03;;;15.22;50.74
71601;BME280;59446;52.192;4.628;2023-02-26T07:48:03;102558.88;;;15.09;51.17
71601;BME280;59446;52.192;4.628;2023-02-26T07:50:28;102546.72;;;15.05;51.09
71601;BME280;59446;52.192;4.628;2023-02-26T07:52:54;102561.66;;;15.02;51.36
71601;BME280;59446;52.192;4.628;2023-02-26T07:55:19;102572.25;;;14.96;51.64
71601;BME280;59446;52.192;4.628;2023-02-26T07:57:45;102567.94;;;14.93;51.30
71601;BME280;59446;52.192;4.628;2023-02-26T08:00:11;102574.19;;;14.86;51.79
71601;BME280;59446;52.192;4.628;2023-02-26T08:02:37;102567.25;;;14.83;51.34
71601;BME280;59446;52.192;4.628;2023-02-26T08:05:03;102571.66;;;14.81;51.55
71601;BME280;59446;52.192;4.628;2023-02-26T08:07:29;102578.69;;;14.79;51.84
71601;BME280;59446;52.192;4.628;2023-02-26T08:09:54;102581.28;;;14.81;51.54
71601;BME280;59446;52.192;4.628;2023-02-26T08:12:19;102580.47;;;14.79;51.37
71601;BME280;59446;52.192;4.628;2023-02-26T08:14:45;102589.13;;;14.82;51.59
71601;BME280;59446;52.192;4.628;2023-02-26T08:17:11;102591.78;;;14.81;51.68
71601;BME280;59446;52.192;4.628;2023-02-26T08:19:37;102596.88;;;14.89;51.63
71601;BME280;59446;52.192;4.628;2023-02-26T08:22:02;102599.13;;;15.08;50.83
71601;BME280;59446;52.192;4.628;2023-02-26T08:24:27;102598.75;;;15.28;51.25
71601;BME280;59446;52.192;4.628;2023-02-26T08:26:53;102599.28;;;15.45;50.13
71601;BME280;59446;52.192;4.628;2023-02-26T08:29:18;102602.69;;;15.51;49.98
71601;BME280;59446;52.192;4.628;2023-02-26T08:31:44;102607.03;;;15.52;50.22
71601;BME280;59446;52.192;4.628;2023-02-26T08:34:09;102604.34;;;15.55;50.29
71601;BME280;59446;52.192;4.628;2023-02-26T08:36:34;102615.47;;;15.69;49.98
71601;BME280;59446;52.192;4.628;2023-02-26T08:39:00;102621.19;;;15.86;50.01
71601;BME280;59446;52.192;4.628;2023-02-26T08:41:25;102623.63;;;15.95;49.98
71601;BME280;59446;52.192;4.628;2023-02-26T08:43:53;102628.78;;;16.00;49.74
71601;BME280;59446;52.192;4.628;2023-02-26T08:46:19;102630.50;;;16.01;49.25
71601;BME280;59446;52.192;4.628;2023-02-26T08:48:44;102639.16;;;16.06;49.46
71601;BME280;59446;52.192;4.628;2023-02-26T08:51:10;102630.22;;;16.15;49.51
71601;BME280;59446;52.192;4.628;2023-02-26T08:53:35;102641.56;;;16.17;49.12
71601;BME280;59446;52.192;4.628;2023-02-26T08:56:01;102644.28;;;16.12;49.40
71601;BME280;59446;52.192;4.628;2023-02-26T08:58:26;102642.59;;;16.08;49.35
71601;BME280;59446;52.192;4.628;2023-02-26T09:00:52;102645.84;;;16.21;49.66
71601;BME280;59446;52.192;4.628;2023-02-26T09:03:17;102643.59;;;16.41;49.32
71601;BME280;59446;52.192;4.628;2023-02-26T09:05:43;102646.97;;;16.46;48.58
71601;BME280;59446;52.192;4.628;2023-02-26T09:08:08;102653.19;;;16.44;48.73
71601;BME280;59446;52.192;4.628;2023-02-26T09:10:35;102653.34;;;16.38;49.41
71601;BME280;59446;52.192;4.628;2023-02-26T09:13:01;102659.22;;;16.47;48.64
71601;BME280;59446;52.192;4.628;2023-02-26T09:15:26;102670.53;;;16.51;48.44
71601;BME280;59446;52.192;4.628;2023-02-26T09:17:52;102668.81;;;16.50;48.27
71601;BME280;59446;52.192;4.628;2023-02-26T09:20:17;102669.00;;;16.42;48.28
71601;BME280;59446;52.192;4.628;2023-02-26T09:22:43;102671.66;;;16.41;48.56
71601;BME280;59446;52.192;4.628;2023-02-26T09:25:09;102682.31;;;16.34;48.26
71601;BME280;59446;52.192;4.628;2023-02-26T09:27:34;102692.09;;;16.28;48.25
71601;BME280;59446;52.192;4.628;2023-02-26T09:30:01;102684.41;;;16.20;48.31
71601;BME280;59446;52.192;4.628;2023-02-26T09:32:26;102694.97;;;16.17;48.25
71601;BME280;59446;52.192;4.628;2023-02-26T09:34:52;102696.84;;;16.12;48.35
71601;BME280;59446;52.192;4.628;2023-02-26T09:37:17;102694.25;;;16.11;48.13
71601;BME280;59446;52.192;4.628;2023-02-26T09:39:43;102696.03;;;16.09;47.90
71601;BME280;59446;52.192;4.628;2023-02-26T09:43:26;102704.31;;;16.30;47.31
71601;BME280;59446;52.192;4.628;2023-02-26T09:45:33;102705.78;;;16.44;47.93
71601;BME280;59446;52.192;4.628;2023-02-26T09:48:03;102710.66;;;16.60;47.64
71601;BME280;59446;52.192;4.628;2023-02-26T09:50:41;102712.75;;;16.83;47.44
71601;BME280;59446;52.192;4.628;2023-02-26T09:55:44;102713.44;;;17.25;46.88
71601;BME280;59446;52.192;4.628;2023-02-26T09:58:31;102709.63;;;17.36;47.17
71601;BME280;59446;52.192;4.628;2023-02-26T10:01:00;102714.09;;;17.34;47.05
71601;BME280;59446;52.192;4.628;2023-02-26T10:06:56;102720.59;;;17.53;47.21
71601;BME280;59446;52.192;4.628;2023-02-26T10:12:06;102723.00;;;17.62;47.26
71601;BME280;59446;52.192;4.628;2023-02-26T10:18:05;102728.09;;;17.68;47.38
71601;BME280;59446;52.192;4.628;2023-02-26T10:23:30;102734.34;;;17.64;47.75
71601;BME280;59446;52.192;4.628;2023-02-26T10:26:08;102744.94;;;17.63;48.02
71601;BME280;59446;52.192;4.628;2023-02-26T10:36:52;102765.06;;;17.65;48.31
71601;BME280;59446;52.192;4.628;2023-02-26T10:39:30;102764.16;;;17.66;48.07
71601;BME280;59446;52.192;4.628;2023-02-26T10:42:00;102757.31;;;17.59;48.21
71601;BME280;59446;52.192;4.628;2023-02-26T10:44:33;102763.66;;;17.52;48.69
71601;BME280;59446;52.192;4.628;2023-02-26T10:50:03;102768.19;;;17.45;49.06
71601;BME280;59446;52.192;4.628;2023-02-26T10:52:32;102771.03;;;17.38;49.07
71601;BME280;59446;52.192;4.628;2023-02-26T10:57:43;102771.03;;;17.38;49.39
71601;BME280;59446;52.192;4.628;2023-02-26T11:00:16;102784.41;;;17.30;48.59
71601;BME280;59446;52.192;4.628;2023-02-26T11:02:48;102781.03;;;17.25;48.76
71601;BME280;59446;52.192;4.628;2023-02-26T11:05:18;102783.66;;;17.23;48.48
71601;BME280;59446;52.192;4.628;2023-02-26T11:07:47;102784.56;;;17.22;48.24
71601;BME280;59446;52.192;4.628;2023-02-26T11:10:16;102780.25;;;17.20;48.01
71601;BME280;59446;52.192;4.628;2023-02-26T11:12:42;102783.75;;;17.20;48.06
71601;BME280;59446;52.192;4.628;2023-02-26T11:15:19;102789.09;;;17.17;47.98
71601;BME280;59446;52.192;4.628;2023-02-26T11:17:52;102786.34;;;17.22;47.48
71601;BME280;59446;52.192;4.628;2023-02-26T11:20:29;102781.25;;;17.16;47.75
71601;BME280;59446;52.192;4.628;2023-02-26T11:22:57;102778.53;;;17.19;47.14
71601;BME280;59446;52.192;4.628;2023-02-26T11:25:27;102780.28;;;17.18;47.34
71601;BME280;59446;52.192;4.628;2023-02-26T11:28:01;102788.19;;;17.18;47.36
71601;BME280;59446;52.192;4.628;2023-02-26T11:30:31;102778.56;;;17.17;47.32
71601;BME280;59446;52.192;4.628;2023-02-26T11:32:58;102779.34;;;17.21;46.96
71601;BME280;59446;52.192;4.628;2023-02-26T11:35:28;102780.19;;;17.23;46.78
71601;BME280;59446;52.192;4.628;2023-02-26T11:38:01;102780.16;;;17.24;47.13
71601;BME280;59446;52.192;4.628;2023-02-26T11:40:38;102770.16;;;17.37;47.20
71601;BME280;59446;52.192;4.628;2023-02-26T11:43:06;102774.41;;;17.43;47.08
71601;BME280;59446;52.192;4.628;2023-02-26T11:45:38;102773.50;;;17.44;47.08
71601;BME280;59446;52.192;4.628;2023-02-26T11:48:09;102770.03;;;17.42;47.42
71601;BME280;59446;52.192;4.628;2023-02-26T11:50:46;102780.47;;;17.46;47.32
71601;BME280;59446;52.192;4.628;2023-02-26T11:53:24;102781.34;;;17.47;46.73
71601;BME280;59446;52.192;4.628;2023-02-26T11:55:59;102777.72;;;17.51;46.69
71601;BME280;59446;52.192;4.628;2023-02-26T11:58:27;102780.34;;;17.51;46.94
71601;BME280;59446;52.192;4.628;2023-02-26T12:00:57;102775.13;;;17.49;47.07
71601;BME280;59446;52.192;4.628;2023-02-26T12:03:27;102781.31;;;17.48;47.24
71601;BME280;59446;52.192;4.628;2023-02-26T12:05:53;102775.13;;;17.49;47.45
71601;BME280;59446;52.192;4.628;2023-02-26T12:08:35;102773.25;;;17.54;47.11
71601;BME280;59446;52.192;4.628;2023-02-26T12:14:29;102770.72;;;17.50;47.61
71601;BME280;59446;52.192;4.628;2023-02-26T12:36:41;102784.81;;;17.49;48.19
71601;BME280;59446;52.192;4.628;2023-02-26T12:47:52;102779.34;;;17.56;48.32
71601;BME280;59446;52.192;4.628;2023-02-26T13:05:17;102765.19;;;17.61;48.51
71601;BME280;59446;52.192;4.628;2023-02-26T13:10:42;102777.09;;;17.75;48.34
71601;BME280;59446;52.192;4.628;2023-02-26T13:21:46;102773.88;;;17.97;48.80
71601;BME280;59446;52.192;4.628;2023-02-26T13:24:45;102775.41;;;18.04;48.82
71601;BME280;59446;52.192;4.628;2023-02-26T13:27:13;102777.09;;;18.06;48.84
71601;BME280;59446;52.192;4.628;2023-02-26T13:29:47;102770.03;;;18.07;48.76
71601;BME280;59446;52.192;4.628;2023-02-26T13:32:20;102771.81;;;18.06;48.96
71601;BME280;59446;52.192;4.628;2023-02-26T13:34:53;102770.03;;;18.07;49.15
71601;BME280;59446;52.192;4.628;2023-02-26T13:37:41;102770.59;;;18.18;49.24
71601;BME280;59446;52.192;4.628;2023-02-26T13:40:22;102769.03;;;18.11;49.22
71601;BME280;59446;52.192;4.628;2023-02-26T13:45:42;102770.09;;;18.05;49.47
71601;BME280;59446;52.192;4.628;2023-02-26T13:51:03;102758.63;;;18.06;49.26
71601;BME280;59446;52.192;4.628;2023-02-26T13:53:34;102756.91;;;18.05;49.36
71601;BME280;59446;52.192;4.628;2023-02-26T13:56:07;102748.94;;;18.07;49.31
71601;BME280;59446;52.192;4.628;2023-02-26T13:58:39;102754.22;;;18.07;49.43
71601;BME280;59446;52.192;4.628;2023-02-26T14:01:19;102748.13;;;18.05;49.47
71601;BME280;59446;52.192;4.628;2023-02-26T14:04:01;102755.09;;;18.07;49.29
71601;BME280;59446;52.192;4.628;2023-02-26T14:06:43;102766.41;;;18.11;49.32
71601;BME280;59446;52.192;4.628;2023-02-26T14:11:56;102764.53;;;18.16;49.08
71601;BME280;59446;52.192;4.628;2023-02-26T14:14:41;102751.38;;;18.14;48.92
71601;BME280;59446;52.192;4.628;2023-02-26T14:19:36;102761.16;;;18.09;49.04
71601;BME280;59446;52.192;4.628;2023-02-26T14:24:57;102755.13;;;18.06;49.05
71601;BME280;59446;52.192;4.628;2023-02-26T14:27:37;102761.22;;;18.08;48.79
71601;BME280;59446;52.192;4.628;2023-02-26T14:35:28;102773.59;;;18.06;49.15
71601;BME280;59446;52.192;4.628;2023-02-26T14:38:26;102770.75;;;18.12;48.79
71601;BME280;59446;52.192;4.628;2023-02-26T14:41:09;102768.94;;;18.14;48.67
71601;BME280;59446;52.192;4.628;2023-02-26T14:43:44;102768.31;;;18.06;49.01
71601;BME280;59446;52.192;4.628;2023-02-26T14:46:15;102768.31;;;18.06;48.97
71601;BME280;59446;52.192;4.628;2023-02-26T14:48:41;102783.22;;;18.07;49.07
71601;BME280;59446;52.192;4.628;2023-02-26T14:56:38;102773.44;;;18.10;48.94
71601;BME280;59446;52.192;4.628;2023-02-26T15:01:49;102772.38;;;18.17;48.81
71601;BME280;59446;52.192;4.628;2023-02-26T15:04:54;102772.28;;;18.21;48.61
71601;BME280;59446;52.192;4.628;2023-02-26T15:07:40;102779.25;;;18.23;48.33
71601;BME280;59446;52.192;4.628;2023-02-26T15:10:37;102782.84;;;18.21;48.57
71601;BME280;59446;52.192;4.628;2023-02-26T15:21:59;102779.53;;;18.12;48.74
71601;BME280;59446;52.192;4.628;2023-02-26T15:24:27;102775.69;;;18.24;48.55
71601;BME280;59446;52.192;4.628;2023-02-26T15:26:57;102780.25;;;18.19;48.54
71601;BME280;59446;52.192;4.628;2023-02-26T15:29:28;102781.78;;;18.26;48.35
71601;BME280;59446;52.192;4.628;2023-02-26T15:31:57;102785.56;;;18.17;48.77
71601;BME280;59446;52.192;4.628;2023-02-26T15:34:25;102790.22;;;18.08;49.14
71601;BME280;59446;52.192;4.628;2023-02-26T15:36:51;102794.94;;;17.97;49.18
71601;BME280;59446;52.192;4.628;2023-02-26T15:39:20;102788.94;;;17.92;49.12
71601;BME280;59446;52.192;4.628;2023-02-26T15:41:48;102793.19;;;17.97;49.16
71601;BME280;59446;52.192;4.628;2023-02-26T15:44:27;102793.00;;;18.03;48.83
71601;BME280;59446;52.192;4.628;2023-02-26T15:46:58;102787.59;;;18.08;48.80
71601;BME280;59446;52.192;4.628;2023-02-26T15:49:36;102786.44;;;18.18;48.60
71601;BME280;59446;52.192;4.628;2023-02-26T15:52:03;102794.44;;;18.15;48.53
71601;BME280;59446;52.192;4.628;2023-02-26T15:54:41;102792.13;;;18.03;48.66
71601;BME280;59446;52.192;4.628;2023-02-26T15:57:09;102803.00;;;17.91;49.24